Susquehanna — WDD9976 — position and weather

sailwx.info

Track history (hours):
 
Tides and Currents Weather Stations Pressure Air Temp Water Temp Dewpoint Dewpoint Depression Visibility Wind Speed Wind Dir Waves Ship Positions

Susquehanna

More information available from US FCC via Universal Licensing System and Coast Guard Vessel Documentation Center.

Last reported at 2014-Jul-23 15:14 UTC. Time now 2014-Jul-31 21:42 UTC.
Position N 39°51' W 075°20'.
Warning: this ship's position is 8 days out of date.

Length 28 m; draft 4.2 m.

Type: Tug. MMSI: 367318750.

Date/timePositionNaut miles runAvg speedWind from/ knotsBaromVisibWave heightAir tempDewpointWater temp
2014-Jul-23 15:14N 39°51' W 075°20'46 8.0
2014-Jul-23 09:29N 39°05' W 075°11'9 9.4
2014-Jul-23 08:32N 38°57' W 075°07'9 9.3
2014-Jul-23 07:33N 38°49' W 075°02'9 9.4
2014-Jul-23 06:33N 38°51' W 074°50'11 9.5
2014-Jul-23 05:25N 38°59' W 074°41'10 9.6
2014-Jul-23 04:23N 39°07' W 074°33'8 9.7
2014-Jul-23 03:33N 39°14' W 074°27'10 9.6
2014-Jul-23 02:31N 39°21' W 074°19'11 9.7
2014-Jul-23 01:23N 39°31' W 074°12'8 9.9
2014-Jul-23 00:33N 39°38' W 074°07'9 9.6
2014-Jul-22 23:33N 39°47' W 074°03'10 9.6
2014-Jul-22 22:33N 39°57' W 074°01'20 9.8
2014-Jul-22 20:33N 40°16' W 073°56'12 9.7
2014-Jul-22 19:21N 40°27' W 073°55'7 8.3
2014-Jul-22 18:33N 40°32' W 074°01'6 5.8
2014-Jul-22 17:33N 40°38' W 074°03'4 4.2
2014-Jul-22 16:33N 40°42' W 074°02'32 8.0
2014-Jul-22 12:33N 41°14' W 073°57'  
2014-Jul-20 05:30N 40°43' W 074°01'8 8.2
2014-Jul-20 04:33N 40°35' W 074°02'42 8.3
2014-Jul-19 23:30N 39°54' W 073°57'9 9.0
2014-Jul-19 22:33N 39°45' W 073°58'9 8.9
2014-Jul-19 21:33N 39°37' W 074°03'9 9.4
2014-Jul-19 20:33N 39°29' W 074°09'5 0.1
2014-Jul-17 21:31N 39°33' W 074°06'7 7.2
2014-Jul-17 20:33N 39°40' W 074°02'7 7.3
2014-Jul-17 19:33N 39°46' W 073°58'43 7.0
2014-Jul-17 13:30N 40°29' W 073°54'5 5.7
2014-Jul-17 12:33N 40°31' W 074°00'5 5.3
2014-Jul-17 11:33N 40°36' W 074°03'1010.1
2014-Jul-17 10:31N 40°47' W 074°00'1010.5
2014-Jul-17 09:33N 40°56' W 073°55'10 8.4
2014-Jul-17 08:18N 41°06' W 073°53'5 6.7
2014-Jul-17 07:33N 41°11' W 073°56'27 0.7
2014-Jul-15 18:22N 40°44' W 074°01'7 8.5
2014-Jul-15 17:33N 40°37' W 074°03'9 8.0
2014-Jul-15 16:23N 40°30' W 073°56'7 7.9
2014-Jul-15 15:33N 40°23' W 073°54'9 8.9
2014-Jul-15 14:30N 40°14' W 073°54'9 9.6
2014-Jul-15 13:33N 40°05' W 073°55'10 9.8
2014-Jul-15 12:32N 39°55' W 073°56'9 9.7
2014-Jul-15 11:33N 39°45' W 073°58'9 9.5
2014-Jul-15 10:33N 39°37' W 074°03'9 9.4
2014-Jul-15 09:33N 39°29' W 074°09'54 1.3
2014-Jul-13 16:20N 39°00' W 075°08'6 7.6
2014-Jul-13 15:33N 38°55' W 075°05'  
Track history (hours):
 
Tides and Currents Weather Stations Pressure Air Temp Water Temp Dewpoint Dewpoint Depression Visibility Wind Speed Wind Dir Waves Ship Positions

Susquehanna

More information available from US FCC via Universal Licensing System and Coast Guard Vessel Documentation Center.

Last reported at 2014-Jul-23 15:14 UTC. Time now 2014-Jul-31 21:42 UTC.
Position N 39°51' W 075°20'.
Warning: this ship's position is 8 days out of date.

Length 28 m; draft 4.2 m.

Type: Tug. MMSI: 367318750.

Date/timePositionNaut miles runAvg speedWind from/ knotsBaromVisibWave heightAir tempDewpointWater temp
2014-Jul-23 15:14N 39°51' W 075°20'46 8.0
2014-Jul-23 09:29N 39°05' W 075°11'9 9.4
2014-Jul-23 08:32N 38°57' W 075°07'9 9.3
2014-Jul-23 07:33N 38°49' W 075°02'9 9.4
2014-Jul-23 06:33N 38°51' W 074°50'11 9.5
2014-Jul-23 05:25N 38°59' W 074°41'10 9.6
2014-Jul-23 04:23N 39°07' W 074°33'8 9.7
2014-Jul-23 03:33N 39°14' W 074°27'10 9.6
2014-Jul-23 02:31N 39°21' W 074°19'11 9.7
2014-Jul-23 01:23N 39°31' W 074°12'8 9.9
2014-Jul-23 00:33N 39°38' W 074°07'9 9.6
2014-Jul-22 23:33N 39°47' W 074°03'10 9.6
2014-Jul-22 22:33N 39°57' W 074°01'20 9.8
2014-Jul-22 20:33N 40°16' W 073°56'12 9.7
2014-Jul-22 19:21N 40°27' W 073°55'7 8.3
2014-Jul-22 18:33N 40°32' W 074°01'6 5.8
2014-Jul-22 17:33N 40°38' W 074°03'4 4.2
2014-Jul-22 16:33N 40°42' W 074°02'32 8.0
2014-Jul-22 12:33N 41°14' W 073°57'  
2014-Jul-20 05:30N 40°43' W 074°01'8 8.2
2014-Jul-20 04:33N 40°35' W 074°02'42 8.3
2014-Jul-19 23:30N 39°54' W 073°57'9 9.0
2014-Jul-19 22:33N 39°45' W 073°58'9 8.9
2014-Jul-19 21:33N 39°37' W 074°03'9 9.4
2014-Jul-19 20:33N 39°29' W 074°09'5 0.1
2014-Jul-17 21:31N 39°33' W 074°06'7 7.2
2014-Jul-17 20:33N 39°40' W 074°02'7 7.3
2014-Jul-17 19:33N 39°46' W 073°58'43 7.0
2014-Jul-17 13:30N 40°29' W 073°54'5 5.7
2014-Jul-17 12:33N 40°31' W 074°00'5 5.3
2014-Jul-17 11:33N 40°36' W 074°03'1010.1
2014-Jul-17 10:31N 40°47' W 074°00'1010.5
2014-Jul-17 09:33N 40°56' W 073°55'10 8.4
2014-Jul-17 08:18N 41°06' W 073°53'5 6.7
2014-Jul-17 07:33N 41°11' W 073°56'27 0.7
2014-Jul-15 18:22N 40°44' W 074°01'7 8.5
2014-Jul-15 17:33N 40°37' W 074°03'9 8.0
2014-Jul-15 16:23N 40°30' W 073°56'7 7.9
2014-Jul-15 15:33N 40°23' W 073°54'9 8.9
2014-Jul-15 14:30N 40°14' W 073°54'9 9.6
2014-Jul-15 13:33N 40°05' W 073°55'10 9.8
2014-Jul-15 12:32N 39°55' W 073°56'9 9.7
2014-Jul-15 11:33N 39°45' W 073°58'9 9.5
2014-Jul-15 10:33N 39°37' W 074°03'9 9.4
2014-Jul-15 09:33N 39°29' W 074°09'54 1.3
2014-Jul-13 16:20N 39°00' W 075°08'6 7.6
2014-Jul-13 15:33N 38°55' W 075°05'  

Dump ship's entire track history